createdAt,value
2019-01-23T00:01:49.213Z,31.37
2019-01-23T00:06:41.841Z,30.57
2019-01-23T00:11:34.457Z,31.00
2019-01-23T00:16:26.860Z,30.17
2019-01-23T00:21:19.716Z,31.50
2019-01-23T00:26:12.157Z,30.97
2019-01-23T00:31:04.951Z,29.03
2019-01-23T00:35:57.293Z,29.40
2019-01-23T00:40:49.923Z,29.80
2019-01-23T00:45:42.258Z,28.43
2019-01-23T00:50:35.084Z,29.40
2019-01-23T00:55:27.681Z,29.53
2019-01-23T01:00:23.271Z,29.67
2019-01-23T01:05:16.661Z,29.13
2019-01-23T01:10:12.128Z,28.50
2019-01-23T01:15:13.124Z,30.10
2019-01-23T01:20:01.331Z,28.93
2019-01-23T01:24:53.776Z,28.50
2019-01-23T01:29:46.573Z,29.00
2019-01-23T01:34:39.066Z,27.57
2019-01-23T01:39:31.520Z,28.87
2019-01-23T01:44:23.985Z,28.33
2019-01-23T01:49:16.641Z,26.97
2019-01-23T01:54:09.268Z,28.07
2019-01-23T01:59:02.967Z,27.87
2019-01-23T02:03:55.635Z,28.90
2019-01-23T02:08:48.285Z,29.63
2019-01-23T02:13:41.104Z,28.17
2019-01-23T02:18:33.781Z,29.67
2019-01-23T02:23:26.752Z,29.93
2019-01-23T02:28:19.146Z,30.03
2019-01-23T02:33:11.490Z,27.97
2019-01-23T02:38:04.393Z,29.83
2019-01-23T02:42:56.914Z,29.10
2019-01-23T02:47:50.525Z,29.37
2019-01-23T02:52:42.937Z,30.07
2019-01-23T02:57:35.760Z,29.37
2019-01-23T03:02:28.558Z,29.17
2019-01-23T03:07:21.159Z,29.70
2019-01-23T03:12:13.680Z,28.23
2019-01-23T03:17:06.582Z,30.23
2019-01-23T03:21:59.021Z,28.10
2019-01-23T03:26:51.272Z,27.80
2019-01-23T03:31:43.673Z,29.00
2019-01-23T03:36:36.173Z,28.87
2019-01-23T03:41:28.636Z,30.10
2019-01-23T03:46:21.410Z,28.67
2019-01-23T03:51:14.257Z,27.87
2019-01-23T03:56:06.730Z,29.87
2019-01-23T04:00:59.381Z,29.67
2019-01-23T04:05:51.861Z,30.80
2019-01-23T04:10:44.615Z,29.40
2019-01-23T04:15:37.021Z,30.47
2019-01-23T04:20:30.014Z,29.40
2019-01-23T04:25:22.845Z,30.50
2019-01-23T04:30:18.438Z,28.77
2019-01-23T04:35:11.230Z,30.40
2019-01-23T04:40:05.218Z,29.20
2019-01-23T04:44:57.589Z,29.43
2019-01-23T04:49:50.444Z,30.13
2019-01-23T04:54:43.113Z,29.73
2019-01-23T04:59:35.682Z,29.97
2019-01-23T05:04:28.099Z,29.57
2019-01-23T05:09:20.710Z,30.37
2019-01-23T05:14:13.345Z,29.70
2019-01-23T05:19:05.585Z,30.77
2019-01-23T05:23:58.148Z,30.80
2019-01-23T05:28:50.673Z,30.47
2019-01-23T05:33:43.300Z,30.27
2019-01-23T05:38:35.704Z,30.90
2019-01-23T05:43:28.421Z,29.67
2019-01-23T05:48:21.196Z,31.07
2019-01-23T05:53:13.850Z,32.00
2019-01-23T05:58:06.316Z,30.87
2019-01-23T06:02:58.818Z,32.40
2019-01-23T06:07:51.528Z,32.00
2019-01-23T06:12:43.918Z,31.90
2019-01-23T06:17:36.293Z,33.10
2019-01-23T06:22:28.867Z,32.83
2019-01-23T06:27:21.432Z,32.87
2019-01-23T06:32:14.122Z,32.93
2019-01-23T06:37:06.669Z,32.33
2019-01-23T06:41:59.400Z,34.33
2019-01-23T06:46:51.572Z,33.53
2019-01-23T06:51:44.335Z,32.10
2019-01-23T06:56:36.631Z,31.50
2019-01-23T07:01:29.287Z,30.97
2019-01-23T07:06:41.230Z,33.63
2019-01-23T07:11:33.774Z,32.37
2019-01-23T07:16:26.197Z,34.23
2019-01-23T07:21:18.913Z,33.73
2019-01-23T07:26:11.532Z,34.83
2019-01-23T07:31:04.105Z,35.17
2019-01-23T07:35:56.766Z,34.20
2019-01-23T07:40:49.169Z,34.13
2019-01-23T07:45:42.249Z,33.40
2019-01-23T07:50:34.633Z,34.30
2019-01-23T07:55:27.739Z,33.57
2019-01-23T08:00:31.272Z,33.77
2019-01-23T08:05:21.705Z,34.13
2019-01-23T08:10:16.473Z,34.50
2019-01-23T08:15:11.773Z,36.40
2019-01-23T08:20:07.534Z,35.60
2019-01-23T08:25:00.254Z,36.33
2019-01-23T08:29:53.109Z,32.73
2019-01-23T08:34:45.768Z,34.30
2019-01-23T08:39:38.283Z,34.87
2019-01-23T08:44:30.669Z,32.60
2019-01-23T08:49:23.117Z,34.70
2019-01-23T08:54:15.481Z,36.60
2019-01-23T08:59:08.000Z,36.60
2019-01-23T09:04:00.400Z,37.37
2019-01-23T09:08:53.497Z,37.27
2019-01-23T09:13:46.041Z,36.00
2019-01-23T09:18:38.561Z,38.03
2019-01-23T09:23:30.885Z,38.63
2019-01-23T09:28:23.733Z,37.73
2019-01-23T09:33:38.177Z,37.67
2019-01-23T09:38:54.616Z,37.23
2019-01-23T09:43:54.040Z,38.30
2019-01-23T09:48:49.474Z,39.03
2019-01-23T09:53:44.960Z,37.17
2019-01-23T09:58:37.597Z,36.13
2019-01-23T10:03:30.017Z,39.03
2019-01-23T10:08:22.469Z,35.17
2019-01-23T10:13:14.720Z,37.03
2019-01-23T10:18:07.115Z,33.70
2019-01-23T10:22:59.409Z,36.70
2019-01-23T10:27:51.805Z,35.73
2019-01-23T10:32:44.699Z,34.03
2019-01-23T10:37:37.146Z,33.80
2019-01-23T10:42:29.796Z,31.83
2019-01-23T10:47:22.510Z,33.10
2019-01-23T10:52:15.406Z,31.67
2019-01-23T10:57:07.732Z,32.53
2019-01-23T11:02:00.568Z,30.87
2019-01-23T11:06:53.034Z,30.90
2019-01-23T11:11:45.765Z,30.57
2019-01-23T11:16:38.207Z,31.10
2019-01-23T11:21:31.026Z,31.23
2019-01-23T11:26:23.836Z,32.47
2019-01-23T11:31:20.307Z,28.67
2019-01-23T11:36:10.922Z,30.30
2019-01-23T11:41:03.550Z,29.27
2019-01-23T11:45:55.905Z,29.77
2019-01-23T11:50:48.434Z,28.50
2019-01-23T11:55:41.210Z,28.00
2019-01-23T12:00:35.204Z,27.10
2019-01-23T12:05:27.833Z,28.13
2019-01-23T12:10:24.592Z,28.20
2019-01-23T12:15:19.261Z,27.17
2019-01-23T12:20:12.120Z,27.80
2019-01-23T12:25:06.468Z,27.67
2019-01-23T12:29:59.212Z,28.40
2019-01-23T12:34:52.169Z,26.03
2019-01-23T12:39:44.621Z,26.53
2019-01-23T12:44:39.131Z,26.50
2019-01-23T12:49:31.916Z,28.27
2019-01-23T12:54:24.586Z,26.73
2019-01-23T12:59:17.348Z,27.33
2019-01-23T13:04:09.709Z,29.00
2019-01-23T13:09:01.890Z,27.13
2019-01-23T13:13:54.716Z,26.77
2019-01-23T13:18:47.341Z,25.90
2019-01-23T13:23:39.761Z,27.57
2019-01-23T13:28:32.236Z,25.07
2019-01-23T13:33:24.802Z,26.30
2019-01-23T13:38:17.469Z,26.57
2019-01-23T13:43:10.001Z,26.17
2019-01-23T13:48:03.257Z,27.73
2019-01-23T13:52:58.466Z,27.10
2019-01-23T13:57:50.846Z,27.63
2019-01-23T14:02:43.261Z,27.70
2019-01-23T14:07:35.605Z,27.07
2019-01-23T14:12:28.117Z,27.13
2019-01-23T14:17:20.789Z,27.97
2019-01-23T14:22:13.474Z,27.53
2019-01-23T14:27:06.218Z,27.30
2019-01-23T14:32:03.264Z,25.97
2019-01-23T14:36:52.793Z,25.37
2019-01-23T14:41:44.922Z,25.47
2019-01-23T14:46:37.623Z,25.73
2019-01-23T14:51:30.397Z,27.17
2019-01-23T14:56:22.861Z,27.67
2019-01-23T15:01:15.454Z,26.63
2019-01-23T15:06:08.349Z,27.67
2019-01-23T15:11:00.941Z,26.73
2019-01-23T15:15:53.447Z,26.53
2019-01-23T15:20:45.989Z,25.77
2019-01-23T15:25:38.663Z,26.23
2019-01-23T15:30:31.049Z,27.63
2019-01-23T15:35:23.710Z,27.27
2019-01-23T15:40:19.297Z,26.50
2019-01-23T15:45:12.327Z,27.27
2019-01-23T15:50:07.349Z,27.90
2019-01-23T15:55:00.226Z,26.20
2019-01-23T15:59:52.753Z,28.33
2019-01-23T16:04:45.673Z,27.07
2019-01-23T16:09:38.492Z,26.20
2019-01-23T16:14:31.030Z,28.33
2019-01-23T16:19:23.509Z,28.30
2019-01-23T16:24:16.429Z,28.47
2019-01-23T16:29:08.913Z,27.63
2019-01-23T16:34:01.538Z,28.90
2019-01-23T16:38:54.057Z,29.93
2019-01-23T16:43:46.642Z,29.40
2019-01-23T16:48:41.225Z,28.00
2019-01-23T16:53:34.031Z,28.70
2019-01-23T16:58:26.853Z,27.93
2019-01-23T17:03:19.831Z,27.00
2019-01-23T17:08:12.498Z,26.53
2019-01-23T17:13:05.277Z,28.47
2019-01-23T17:17:58.042Z,28.53
2019-01-23T17:22:50.531Z,28.83
2019-01-23T17:27:43.255Z,29.73
2019-01-23T17:32:35.589Z,30.90
2019-01-23T17:37:28.493Z,26.80
2019-01-23T17:42:20.806Z,26.90
2019-01-23T17:47:13.682Z,26.27
2019-01-23T17:52:06.471Z,24.93
2019-01-23T17:56:59.445Z,25.13
2019-01-23T18:01:51.929Z,24.67
2019-01-23T18:06:44.601Z,25.37
2019-01-23T18:11:37.029Z,23.53
2019-01-23T18:16:29.597Z,24.80
2019-01-23T18:21:22.010Z,24.60
2019-01-23T18:26:14.661Z,25.63
2019-01-23T18:31:10.357Z,25.07
2019-01-23T18:36:22.709Z,26.77
2019-01-23T18:41:34.776Z,24.77
2019-01-23T18:46:53.580Z,22.70
2019-01-23T18:51:46.993Z,23.63
2019-01-23T18:56:39.476Z,25.13
2019-01-23T19:01:32.211Z,24.43
2019-01-23T19:06:24.975Z,24.07
2019-01-23T19:11:17.702Z,24.73
2019-01-23T19:16:10.248Z,25.53
2019-01-23T19:21:02.617Z,22.10
2019-01-23T19:25:55.298Z,24.03
2019-01-23T19:30:48.013Z,24.00
2019-01-23T19:35:40.545Z,21.33
2019-01-23T19:40:32.945Z,23.00
2019-01-23T19:45:25.261Z,22.13
2019-01-23T19:50:18.018Z,22.20
2019-01-23T19:55:13.825Z,22.03
2019-01-23T20:00:09.158Z,24.03
2019-01-23T20:05:01.208Z,23.90
2019-01-23T20:09:53.701Z,23.90
2019-01-23T20:14:46.208Z,23.60
2019-01-23T20:19:38.524Z,23.63
2019-01-23T20:24:30.850Z,23.23
2019-01-23T20:29:23.246Z,24.53
2019-01-23T20:34:15.886Z,24.60
2019-01-23T20:39:10.279Z,23.47
2019-01-23T20:44:02.439Z,22.67
2019-01-23T20:48:54.765Z,24.07
2019-01-23T20:53:47.602Z,21.97
2019-01-23T20:58:40.157Z,24.73
2019-01-23T21:03:35.145Z,25.87
2019-01-23T21:08:27.182Z,24.63
2019-01-23T21:13:20.032Z,23.80
2019-01-23T21:18:12.369Z,24.90
2019-01-23T21:23:04.801Z,25.13
2019-01-23T21:27:57.546Z,25.43
2019-01-23T21:32:50.017Z,27.20
2019-01-23T21:37:42.613Z,25.97
2019-01-23T21:42:35.440Z,26.13
2019-01-23T21:47:28.257Z,22.87
2019-01-23T21:52:20.495Z,25.07
2019-01-23T21:57:13.101Z,23.47
2019-01-23T22:02:05.801Z,24.97
2019-01-23T22:06:58.593Z,22.93
2019-01-23T22:11:51.052Z,23.93
2019-01-23T22:16:43.790Z,25.50
2019-01-23T22:21:36.109Z,24.63
2019-01-23T22:26:28.701Z,25.20
2019-01-23T22:31:21.210Z,25.67
2019-01-23T22:36:14.013Z,25.13
2019-01-23T22:41:06.568Z,27.03
2019-01-23T22:45:59.272Z,24.50
2019-01-23T22:50:51.780Z,25.57
2019-01-23T22:55:44.336Z,24.67
2019-01-23T23:00:40.782Z,25.13
2019-01-23T23:05:33.353Z,26.50
2019-01-23T23:10:25.783Z,23.27
2019-01-23T23:15:18.605Z,23.03
2019-01-23T23:20:13.021Z,21.73
2019-01-23T23:25:07.272Z,21.37
2019-01-23T23:29:59.989Z,20.43
2019-01-23T23:34:52.517Z,20.20
2019-01-23T23:39:45.257Z,19.90
2019-01-23T23:44:37.614Z,20.40
2019-01-23T23:49:30.168Z,19.97
2019-01-23T23:54:22.900Z,19.87
2019-01-23T23:59:15.465Z,20.23
